createdAt,value
2018-02-17T00:00:39.472Z,34.10
2018-02-17T00:03:07.105Z,35.53
2018-02-17T00:05:34.763Z,42.17
2018-02-17T00:08:02.412Z,29.10
2018-02-17T00:10:30.850Z,27.13
2018-02-17T00:12:58.500Z,35.27
2018-02-17T00:15:26.124Z,39.07
2018-02-17T00:17:53.772Z,35.17
2018-02-17T00:20:21.373Z,43.80
2018-02-17T00:22:49.026Z,38.53
2018-02-17T00:25:16.641Z,36.53
2018-02-17T00:27:44.289Z,41.10
2018-02-17T00:30:11.863Z,44.57
2018-02-17T00:32:39.524Z,39.90
2018-02-17T00:35:07.164Z,47.63
2018-02-17T00:37:35.598Z,47.07
2018-02-17T00:40:03.216Z,42.07
2018-02-17T00:42:30.839Z,51.63
2018-02-17T00:44:58.504Z,47.20
2018-02-17T00:47:26.162Z,36.10
2018-02-17T00:49:53.821Z,58.77
2018-02-17T00:52:22.224Z,38.77
2018-02-17T00:54:50.609Z,45.80
2018-02-17T00:57:19.040Z,36.00
2018-02-17T00:59:46.691Z,32.20
2018-02-17T01:02:14.344Z,39.37
2018-02-17T01:04:42.021Z,41.87
2018-02-17T01:07:09.650Z,36.50
2018-02-17T01:09:37.251Z,39.30
2018-02-17T01:12:06.393Z,39.67
2018-02-17T01:14:33.993Z,56.83
2018-02-17T01:17:01.612Z,39.17
2018-02-17T01:19:29.252Z,38.63
2018-02-17T01:21:56.885Z,45.23
2018-02-17T01:24:25.315Z,35.77
2018-02-17T01:26:52.956Z,40.13
2018-02-17T01:29:21.491Z,37.17
2018-02-17T01:31:49.087Z,32.13
2018-02-17T01:34:16.733Z,26.30
2018-02-17T01:36:44.390Z,37.30
2018-02-17T01:39:12.020Z,29.33
2018-02-17T01:41:39.611Z,41.50
2018-02-17T01:44:08.008Z,32.57
2018-02-17T01:46:36.386Z,44.13
2018-02-17T01:49:04.118Z,31.70
2018-02-17T01:51:31.733Z,25.23
2018-02-17T01:53:59.364Z,31.90
2018-02-17T01:56:26.984Z,41.40
2018-02-17T01:58:54.596Z,25.63
2018-02-17T02:01:22.212Z,27.90
2018-02-17T02:03:51.179Z,26.43
2018-02-17T02:06:18.843Z,33.53
2018-02-17T02:08:46.432Z,27.90
2018-02-17T02:11:14.062Z,25.63
2018-02-17T02:13:42.422Z,32.27
2018-02-17T02:16:10.081Z,29.63
2018-02-17T02:18:37.712Z,20.63
2018-02-17T02:21:06.096Z,33.97
2018-02-17T02:23:33.739Z,21.40
2018-02-17T02:26:01.381Z,30.87
2018-02-17T02:28:28.988Z,31.67
2018-02-17T02:30:56.621Z,24.47
2018-02-17T02:33:24.277Z,36.90
2018-02-17T02:35:52.675Z,23.77
2018-02-17T02:38:20.299Z,23.03
2018-02-17T02:40:47.937Z,20.80
2018-02-17T02:43:15.583Z,23.63
2018-02-17T02:45:43.985Z,32.93
2018-02-17T02:48:12.508Z,18.67
2018-02-17T02:50:40.152Z,24.17
2018-02-17T02:53:08.537Z,21.23
2018-02-17T02:55:36.989Z,18.10
2018-02-17T02:58:04.690Z,22.83
2018-02-17T03:00:32.305Z,18.23
2018-02-17T03:02:59.904Z,23.73
2018-02-17T03:05:27.530Z,19.03
2018-02-17T03:07:55.925Z,22.80
2018-02-17T03:10:23.549Z,18.27
2018-02-17T03:12:51.172Z,20.97
2018-02-17T03:15:18.794Z,18.30
2018-02-17T03:17:46.433Z,16.53
2018-02-17T03:20:14.048Z,19.17
2018-02-17T03:22:41.895Z,17.37
2018-02-17T03:25:09.564Z,26.27
2018-02-17T03:27:37.198Z,16.60
2018-02-17T03:30:05.605Z,14.53
2018-02-17T03:32:34.015Z,16.03
2018-02-17T03:35:01.603Z,18.87
2018-02-17T03:37:29.281Z,20.43
2018-02-17T03:39:56.932Z,16.93
2018-02-17T03:42:24.583Z,18.80
2018-02-17T03:44:52.932Z,15.93
2018-02-17T03:47:20.556Z,12.10
2018-02-17T03:49:48.992Z,12.53
2018-02-17T03:52:16.628Z,17.30
2018-02-17T03:54:44.244Z,12.93
2018-02-17T03:57:11.874Z,13.97
2018-02-17T03:59:39.505Z,9.07
2018-02-17T04:02:07.155Z,15.50
2018-02-17T04:04:34.774Z,14.73
2018-02-17T04:07:03.170Z,17.17
2018-02-17T04:09:31.573Z,13.10
2018-02-17T04:11:59.167Z,14.93
2018-02-17T04:14:26.888Z,11.53
2018-02-17T04:16:55.297Z,31.13
2018-02-17T04:19:23.732Z,20.47
2018-02-17T04:21:51.325Z,11.47
2018-02-17T04:24:18.969Z,14.27
2018-02-17T04:26:46.572Z,19.87
2018-02-17T04:29:14.185Z,12.43
2018-02-17T04:31:42.569Z,17.43
2018-02-17T04:34:10.985Z,18.33
2018-02-17T04:36:38.589Z,11.07
2018-02-17T04:39:06.227Z,18.10
2018-02-17T04:44:49.680Z,11.40
2018-02-17T04:47:40.937Z,14.53
2018-02-17T04:50:09.322Z,13.83
2018-02-17T04:52:37.266Z,16.63
2018-02-17T04:58:25.767Z,12.07
2018-02-17T05:00:56.120Z,13.13
2018-02-17T05:03:25.904Z,14.43
2018-02-17T05:08:58.971Z,14.10
2018-02-17T05:11:27.318Z,10.93
2018-02-17T05:14:00.449Z,17.67
2018-02-17T05:19:52.706Z,12.13
2018-02-17T05:22:37.040Z,8.70
2018-02-17T05:42:57.009Z,11.77
2018-02-17T05:45:24.586Z,17.63
2018-02-17T05:47:57.930Z,16.47
2018-02-17T05:50:25.488Z,16.40
2018-02-17T05:52:53.060Z,15.63
2018-02-17T05:55:20.630Z,16.87
2018-02-17T05:57:48.218Z,14.20
2018-02-17T06:00:15.777Z,11.30
2018-02-17T06:02:43.359Z,11.87
2018-02-17T06:05:26.719Z,20.60
2018-02-17T06:07:54.293Z,15.00
2018-02-17T06:10:25.416Z,11.83
2018-02-17T06:12:52.993Z,13.43
2018-02-17T06:15:20.703Z,10.37
2018-02-17T06:17:48.294Z,17.53
2018-02-17T06:20:15.858Z,11.60
2018-02-17T06:22:43.484Z,15.77
2018-02-17T06:25:11.022Z,13.67
2018-02-17T06:27:38.609Z,13.50
2018-02-17T06:30:06.942Z,13.20
2018-02-17T06:32:34.526Z,13.83
2018-02-17T06:35:02.094Z,14.10
2018-02-17T06:37:29.678Z,16.97
2018-02-17T06:39:57.250Z,15.80
2018-02-17T06:42:24.838Z,15.83
2018-02-17T06:44:52.410Z,15.10
2018-02-17T06:47:19.984Z,16.87
2018-02-17T06:50:02.162Z,16.27
2018-02-17T06:52:29.732Z,14.03
2018-02-17T06:54:57.298Z,12.83
2018-02-17T06:57:24.883Z,12.13
2018-02-17T06:59:52.441Z,17.73
2018-02-17T07:02:20.012Z,13.90
2018-02-17T07:04:48.342Z,19.00
2018-02-17T07:07:15.950Z,20.33
2018-02-17T07:09:44.278Z,21.90
2018-02-17T07:12:11.848Z,13.87
2018-02-17T07:14:39.392Z,19.00
2018-02-17T07:17:06.957Z,23.27
2018-02-17T07:19:34.536Z,14.87
2018-02-17T07:22:02.110Z,24.80
2018-02-17T07:24:29.693Z,16.33
2018-02-17T07:26:58.022Z,22.53
2018-02-17T07:29:25.594Z,18.33
2018-02-17T07:31:53.157Z,20.77
2018-02-17T07:34:20.733Z,18.63
2018-02-17T07:36:48.294Z,11.37
2018-02-17T07:39:15.882Z,28.87
2018-02-17T07:41:44.226Z,22.10
2018-02-17T07:44:12.582Z,20.30
2018-02-17T07:46:40.142Z,21.70
2018-02-17T07:49:07.717Z,20.97
2018-02-17T07:51:35.313Z,25.70
2018-02-17T07:54:03.648Z,23.33
2018-02-17T07:56:31.210Z,18.47
2018-02-17T07:58:58.877Z,21.40
2018-02-17T08:01:26.455Z,28.43
2018-02-17T08:03:54.045Z,23.37
2018-02-17T08:06:21.592Z,18.30
2018-02-17T08:08:50.097Z,12.47
2018-02-17T08:11:17.671Z,12.60
2018-02-17T08:13:45.337Z,38.53
2018-02-17T08:16:12.941Z,23.23
2018-02-17T08:18:40.508Z,21.23
2018-02-17T08:21:08.158Z,27.97
2018-02-17T08:23:35.732Z,15.33
2018-02-17T08:26:04.078Z,30.33
2018-02-17T08:28:31.680Z,17.90
2018-02-17T08:30:59.356Z,19.40
2018-02-17T08:33:26.946Z,19.10
2018-02-17T08:35:54.527Z,19.33
2018-02-17T08:38:22.088Z,20.30
2018-02-17T08:40:49.669Z,37.40
2018-02-17T08:43:17.224Z,20.27
2018-02-17T08:45:44.800Z,25.90
2018-02-17T08:48:13.206Z,31.87
2018-02-17T08:50:40.789Z,23.40
2018-02-17T08:53:08.358Z,29.20
2018-02-17T08:55:35.947Z,24.40
2018-02-17T08:58:03.508Z,32.17
2018-02-17T09:00:31.072Z,15.57
2018-02-17T09:02:58.634Z,21.27
2018-02-17T09:05:27.032Z,29.33
2018-02-17T09:07:54.593Z,27.50
2018-02-17T09:10:34.834Z,25.17
2018-02-17T09:13:02.407Z,30.37
2018-02-17T09:15:29.966Z,33.20
2018-02-17T09:17:57.549Z,18.30
2018-02-17T09:20:25.104Z,22.83
2018-02-17T09:22:52.769Z,35.97
2018-02-17T09:25:20.325Z,33.40
2018-02-17T09:27:47.939Z,23.00
2018-02-17T09:30:15.533Z,28.27
2018-02-17T09:32:43.108Z,32.47
2018-02-17T09:35:10.664Z,36.00
2018-02-17T09:37:38.453Z,31.50
2018-02-17T09:40:06.030Z,30.47
2018-02-17T09:42:33.635Z,35.83
2018-02-17T09:45:01.221Z,27.53
2018-02-17T09:47:28.798Z,28.47
2018-02-17T09:49:56.410Z,40.47
2018-02-17T09:52:24.075Z,27.93
2018-02-17T09:54:51.746Z,27.20
2018-02-17T09:57:19.545Z,35.93
2018-02-17T09:59:47.222Z,37.10
2018-02-17T10:02:14.896Z,27.93
2018-02-17T10:04:42.636Z,33.83
2018-02-17T10:07:10.281Z,35.37
2018-02-17T10:09:38.070Z,47.93
2018-02-17T10:12:06.623Z,34.40
2018-02-17T10:14:34.633Z,41.07
2018-02-17T10:17:03.079Z,24.87
2018-02-17T10:19:30.927Z,25.57
2018-02-17T10:21:58.527Z,33.87
2018-02-17T10:24:26.853Z,27.67
2018-02-17T10:26:54.430Z,28.40
2018-02-17T10:29:21.998Z,36.97
2018-02-17T10:31:49.582Z,33.50
2018-02-17T10:34:17.137Z,31.20
2018-02-17T10:36:44.726Z,29.00
2018-02-17T10:39:12.389Z,25.53
2018-02-17T10:41:39.962Z,29.07
2018-02-17T10:44:07.516Z,27.53
2018-02-17T10:46:35.089Z,30.17
2018-02-17T10:49:03.413Z,30.13
2018-02-17T10:51:30.980Z,22.50
2018-02-17T10:53:58.998Z,28.37
2018-02-17T10:56:27.352Z,25.07
2018-02-17T10:58:54.925Z,27.73
2018-02-17T11:01:22.495Z,27.53
2018-02-17T11:03:50.842Z,29.57
2018-02-17T11:06:18.608Z,31.43
2018-02-17T11:08:46.263Z,24.03
2018-02-17T11:11:13.934Z,23.80
2018-02-17T11:13:41.508Z,26.87
2018-02-17T11:16:12.810Z,29.30
2018-02-17T11:18:40.397Z,31.30
2018-02-17T11:21:08.043Z,28.57
2018-02-17T11:23:35.637Z,26.83
2018-02-17T11:26:03.203Z,30.47
2018-02-17T11:28:30.787Z,30.90
2018-02-17T11:31:00.387Z,25.80
2018-02-17T11:33:53.714Z,18.83
2018-02-17T11:36:21.272Z,21.20
2018-02-17T11:38:57.065Z,20.37
2018-02-17T11:41:25.413Z,26.90
2018-02-17T11:43:52.984Z,25.73
2018-02-17T11:46:21.301Z,28.20
2018-02-17T11:48:48.890Z,26.03
2018-02-17T11:51:20.234Z,22.70
2018-02-17T11:53:47.846Z,21.87
2018-02-17T11:56:16.190Z,20.40
2018-02-17T11:59:03.523Z,16.83
2018-02-17T12:01:32.185Z,15.80
2018-02-17T12:06:59.824Z,17.07
2018-02-17T12:15:36.888Z,14.67
2018-02-17T12:18:04.517Z,14.77
2018-02-17T12:20:32.890Z,20.83
2018-02-17T12:23:08.216Z,14.40
2018-02-17T12:25:36.756Z,17.27
2018-02-17T12:28:04.395Z,15.40
2018-02-17T12:30:32.964Z,18.13
2018-02-17T12:33:00.763Z,21.60
2018-02-17T12:35:28.329Z,18.83
2018-02-17T12:38:13.014Z,16.07
2018-02-17T12:40:40.591Z,20.27
2018-02-17T12:43:08.933Z,18.40
2018-02-17T12:45:51.236Z,14.77
2018-02-17T12:48:18.817Z,17.67
2018-02-17T12:50:46.434Z,18.07
2018-02-17T12:53:14.035Z,17.23
2018-02-17T12:55:41.619Z,19.93
2018-02-17T12:58:09.977Z,16.17
2018-02-17T13:00:37.545Z,14.53
2018-02-17T13:03:05.121Z,16.63
2018-02-17T13:05:53.356Z,18.93
2018-02-17T13:08:21.188Z,15.57
2018-02-17T13:10:48.836Z,16.77
2018-02-17T13:13:16.484Z,17.60
2018-02-17T13:15:44.138Z,16.70
2018-02-17T13:18:11.830Z,14.67
2018-02-17T13:20:39.478Z,13.33
2018-02-17T13:23:27.826Z,15.53
2018-02-17T13:25:55.472Z,15.00
2018-02-17T13:28:26.089Z,12.83
2018-02-17T13:30:54.534Z,14.30
2018-02-17T13:33:22.182Z,15.30
2018-02-17T13:36:06.738Z,18.07
2018-02-17T13:38:34.407Z,17.13
2018-02-17T13:41:23.544Z,19.47
2018-02-17T13:43:51.207Z,13.87
2018-02-17T13:46:25.761Z,15.43
2018-02-17T13:48:53.428Z,11.23
2018-02-17T13:54:35.472Z,13.30
2018-02-17T13:59:57.737Z,12.03
2018-02-17T14:02:28.195Z,11.07
2018-02-17T14:04:55.865Z,9.60
2018-02-17T14:07:23.515Z,10.57
2018-02-17T14:09:51.151Z,13.70
2018-02-17T14:12:29.645Z,12.37
2018-02-17T14:15:00.331Z,9.47
2018-02-17T14:17:28.022Z,9.57
2018-02-17T14:19:55.783Z,9.77
2018-02-17T14:22:23.451Z,9.43
2018-02-17T14:24:51.080Z,11.73
2018-02-17T14:27:18.762Z,11.13
2018-02-17T14:29:46.451Z,9.43
2018-02-17T14:32:14.076Z,6.87
2018-02-17T14:34:41.747Z,10.73
2018-02-17T14:37:09.505Z,8.30
2018-02-17T14:39:37.192Z,8.23
2018-02-17T14:42:04.826Z,7.17
2018-02-17T14:44:32.607Z,8.43
2018-02-17T14:47:00.327Z,8.27
2018-02-17T14:49:27.987Z,9.53
2018-02-17T14:51:56.397Z,9.13
2018-02-17T14:54:24.088Z,7.63
2018-02-17T14:56:51.816Z,9.60
2018-02-17T14:59:19.507Z,8.43
2018-02-17T15:01:54.459Z,10.73
2018-02-17T15:04:25.580Z,11.10
2018-02-17T15:06:55.640Z,10.17
2018-02-17T15:09:26.821Z,13.87
2018-02-17T15:11:54.939Z,9.13
2018-02-17T15:14:24.905Z,12.57
2018-02-17T15:16:54.790Z,13.37
2018-02-17T15:19:25.527Z,10.30
2018-02-17T15:21:55.735Z,11.87
2018-02-17T15:24:24.785Z,13.77
2018-02-17T15:26:53.183Z,12.23
2018-02-17T15:29:21.986Z,11.90
2018-02-17T15:31:51.182Z,14.10
2018-02-17T15:34:18.858Z,12.87
2018-02-17T15:36:46.631Z,13.10
2018-02-17T15:39:16.427Z,12.33
2018-02-17T15:41:44.070Z,12.77
2018-02-17T15:44:11.712Z,17.67
2018-02-17T15:46:39.724Z,15.23
2018-02-17T15:49:07.802Z,15.13
2018-02-17T15:51:35.563Z,12.10
2018-02-17T15:54:13.247Z,11.60
2018-02-17T15:56:41.267Z,13.37
2018-02-17T15:59:09.740Z,17.73
2018-02-17T16:01:37.450Z,14.80
2018-02-17T16:04:05.256Z,11.47
2018-02-17T16:06:33.764Z,11.50
2018-02-17T16:09:01.509Z,14.47
2018-02-17T16:11:29.975Z,12.93
2018-02-17T16:13:57.747Z,12.63
2018-02-17T16:16:32.554Z,11.17
2018-02-17T16:19:00.529Z,12.07
2018-02-17T16:21:28.172Z,14.43
2018-02-17T16:23:59.047Z,12.50
2018-02-17T16:26:27.482Z,14.10
2018-02-17T16:28:55.151Z,11.30
2018-02-17T16:31:22.785Z,11.03
2018-02-17T16:33:50.745Z,11.17
2018-02-17T16:36:18.566Z,11.33
2018-02-17T16:38:46.408Z,17.10
2018-02-17T16:41:14.318Z,10.67
2018-02-17T16:43:42.255Z,12.77
2018-02-17T16:46:12.111Z,16.80
2018-02-17T16:48:40.756Z,16.83
2018-02-17T16:51:09.635Z,17.57
2018-02-17T16:53:37.331Z,14.73
2018-02-17T16:56:04.966Z,16.87
2018-02-17T16:58:32.590Z,14.80
2018-02-17T17:01:00.895Z,17.20
2018-02-17T17:03:31.372Z,15.93
2018-02-17T17:05:59.948Z,15.60
2018-02-17T17:08:28.664Z,18.50
2018-02-17T17:10:56.320Z,16.83
2018-02-17T17:13:25.982Z,13.80
2018-02-17T17:15:55.584Z,11.83
2018-02-17T17:18:30.744Z,14.67
2018-02-17T17:20:58.663Z,13.50
2018-02-17T17:23:26.328Z,16.00
2018-02-17T17:25:53.953Z,20.30
2018-02-17T17:28:24.401Z,15.33
2018-02-17T17:30:52.085Z,15.80
2018-02-17T17:33:19.715Z,15.53
2018-02-17T17:35:47.523Z,15.83
2018-02-17T17:38:16.307Z,14.70
2018-02-17T17:40:43.979Z,20.00
2018-02-17T17:43:11.601Z,15.33
2018-02-17T17:48:34.631Z,13.80
2018-02-17T17:51:02.306Z,16.10
2018-02-17T17:53:30.717Z,15.70
2018-02-17T17:56:00.323Z,17.47
2018-02-17T17:58:27.970Z,19.43
2018-02-17T18:01:02.432Z,26.73
2018-02-17T18:03:30.078Z,26.10
2018-02-17T18:06:05.793Z,16.43
2018-02-17T18:08:33.437Z,19.60
2018-02-17T18:11:01.184Z,18.73
2018-02-17T18:13:28.853Z,16.60
2018-02-17T18:15:56.710Z,20.17
2018-02-17T18:18:24.320Z,19.73
2018-02-17T18:20:52.726Z,12.17
2018-02-17T18:23:20.399Z,16.63
2018-02-17T18:25:48.072Z,21.17
2018-02-17T18:28:15.735Z,17.53
2018-02-17T18:30:43.373Z,18.73
2018-02-17T18:33:11.044Z,15.73
2018-02-17T18:35:38.678Z,14.93
2018-02-17T18:38:07.129Z,17.87
2018-02-17T18:40:34.762Z,14.07
2018-02-17T18:43:02.398Z,14.90
2018-02-17T18:45:30.039Z,13.30
2018-02-17T18:47:58.473Z,15.10
2018-02-17T18:50:26.237Z,10.27
2018-02-17T18:52:53.916Z,11.80
2018-02-17T18:55:21.580Z,13.03
2018-02-17T18:57:49.223Z,13.37
2018-02-17T19:00:16.766Z,13.17
2018-02-17T19:02:45.090Z,11.83
2018-02-17T19:05:12.695Z,10.47
2018-02-17T19:07:40.337Z,10.77
2018-02-17T19:10:08.821Z,11.57
2018-02-17T19:12:36.480Z,11.37
2018-02-17T19:15:04.096Z,11.27
2018-02-17T19:17:31.657Z,11.57
2018-02-17T19:19:59.203Z,15.93
2018-02-17T19:22:26.754Z,13.63
2018-02-17T19:24:55.180Z,16.40
2018-02-17T19:27:22.748Z,11.73
2018-02-17T19:29:50.287Z,14.70
2018-02-17T19:32:18.621Z,11.57
2018-02-17T19:34:46.165Z,10.90
2018-02-17T19:37:13.724Z,12.63
2018-02-17T19:39:42.060Z,11.80
2018-02-17T19:42:09.591Z,11.97
2018-02-17T19:44:37.189Z,15.80
2018-02-17T19:47:04.736Z,8.67
2018-02-17T19:49:32.291Z,12.67
2018-02-17T19:51:59.819Z,11.67
2018-02-17T19:54:27.391Z,10.83
2018-02-17T19:59:47.608Z,19.07
2018-02-17T20:02:15.174Z,23.33
2018-02-17T20:04:42.768Z,20.93
2018-02-17T20:07:10.316Z,24.47
2018-02-17T20:09:37.889Z,26.90
2018-02-17T20:12:05.434Z,28.73
2018-02-17T20:14:33.025Z,26.73
2018-02-17T20:17:00.567Z,18.97
2018-02-17T20:19:28.152Z,20.97
2018-02-17T20:21:56.468Z,16.67
2018-02-17T20:24:24.031Z,13.23
2018-02-17T20:26:51.725Z,12.63
2018-02-17T20:29:19.298Z,11.30
2018-02-17T20:31:46.947Z,11.10
2018-02-17T20:34:14.531Z,13.80
2018-02-17T20:36:42.067Z,11.60
2018-02-17T20:39:10.377Z,12.80
2018-02-17T20:41:37.941Z,9.37
2018-02-17T20:44:06.252Z,7.40
2018-02-17T20:46:33.828Z,10.97
2018-02-17T20:49:01.419Z,13.10
2018-02-17T20:51:29.040Z,10.30
2018-02-17T20:53:57.500Z,9.77
2018-02-17T20:56:25.068Z,10.80
2018-02-17T20:58:52.620Z,18.93
2018-02-17T21:01:21.213Z,11.80
2018-02-17T21:03:48.762Z,12.67
2018-02-17T21:06:16.319Z,14.53
2018-02-17T21:08:44.634Z,14.30
2018-02-17T21:11:12.249Z,13.13
2018-02-17T21:13:39.804Z,12.50
2018-02-17T21:16:07.378Z,12.63
2018-02-17T21:18:34.920Z,13.57
2018-02-17T21:21:02.510Z,11.10
2018-02-17T21:23:30.047Z,14.67
2018-02-17T21:25:57.597Z,13.27
2018-02-17T21:28:27.423Z,13.83
2018-02-17T21:30:55.007Z,11.93
2018-02-17T21:33:23.339Z,13.37
2018-02-17T21:35:50.880Z,13.47
2018-02-17T21:38:18.457Z,19.23
2018-02-17T21:40:45.998Z,17.60
2018-02-17T21:43:13.648Z,15.77
2018-02-17T21:45:41.201Z,17.20
2018-02-17T21:48:08.758Z,16.00
2018-02-17T21:50:36.308Z,16.43
2018-02-17T21:53:04.649Z,19.20
2018-02-17T21:55:32.191Z,22.80
2018-02-17T21:57:59.763Z,19.83
2018-02-17T22:00:27.318Z,17.60
2018-02-17T22:02:54.940Z,21.13
2018-02-17T22:05:22.563Z,22.57
2018-02-17T22:07:50.152Z,19.43
2018-02-17T22:10:17.769Z,21.57
2018-02-17T22:12:45.350Z,22.10
2018-02-17T22:15:12.939Z,25.83
2018-02-17T22:17:41.347Z,22.33
2018-02-17T22:20:09.097Z,23.87
2018-02-17T22:22:37.433Z,27.07
2018-02-17T22:25:05.008Z,25.03
2018-02-17T22:27:32.555Z,23.93
2018-02-17T22:30:00.890Z,21.53
2018-02-17T22:32:28.441Z,31.73
2018-02-17T22:34:56.013Z,21.10
2018-02-17T22:37:35.971Z,22.57
2018-02-17T22:40:03.527Z,26.23
2018-02-17T22:42:31.844Z,22.43
2018-02-17T22:44:59.435Z,24.63
2018-02-17T22:47:26.975Z,25.93
2018-02-17T22:52:54.261Z,23.10
2018-02-17T22:55:22.631Z,25.53
2018-02-17T22:57:50.188Z,25.57
2018-02-17T23:00:35.681Z,22.47
2018-02-17T23:03:03.232Z,23.77
2018-02-17T23:05:34.250Z,25.60
2018-02-17T23:08:04.929Z,24.53
2018-02-17T23:10:32.516Z,25.10
2018-02-17T23:13:00.063Z,27.30
2018-02-17T23:15:27.636Z,29.80
2018-02-17T23:17:55.453Z,22.43
2018-02-17T23:20:23.009Z,25.80
2018-02-17T23:22:50.573Z,20.47
2018-02-17T23:25:18.115Z,25.20
2018-02-17T23:27:46.151Z,28.77
2018-02-17T23:30:13.701Z,26.23
2018-02-17T23:32:41.366Z,26.00
2018-02-17T23:35:08.916Z,24.70
2018-02-17T23:37:36.541Z,30.83
2018-02-17T23:40:04.981Z,23.63
2018-02-17T23:42:32.590Z,27.67
2018-02-17T23:45:00.224Z,27.20
2018-02-17T23:47:27.920Z,24.63
2018-02-17T23:49:55.578Z,34.17
2018-02-17T23:52:23.237Z,29.40
2018-02-17T23:54:50.855Z,37.33
2018-02-17T23:57:18.495Z,33.90
2018-02-17T23:59:46.145Z,26.93
